Terminal Aerodrome Forecast
Issued by NWS

Home | Current Version | Previous Version | Text Only | Print | Product List | Glossary On
Versions: 1 2 3 4 5 6 7 8 9 10 11 12 13 14 15 16 17 18 19 20 21 22 23 24 25 26 27 28
041
FTUS43 KDLH 281531 AAB
TAFBRD
TAF AMD
KBRD 281531Z 2816/0112 04004KT 4SM -SN BKN009 OVC040
      TEMPO 2816/2818 6SM -SN BR SCT009 OVC040
     FM281800 02008KT 6SM -SN BKN015 OVC025
     FM282000 02008KT P6SM BKN015 OVC035=

USA.gov is the U.S. government's official web portal to all federal, state and local government web resources and services.